Time;durP1;ratioP1;P1;durP2;ratioP2;P2;SDS_P1;SDS_P2;PMS_P1;PMS_P2;Temp;Humidity;BMP_temperature;BMP_pressure;BME280_temperature;BME280_humidity;BME280_pressure;Samples;Min_cycle;Max_cycle;Signal;HPM_P1;HPM_P2
2021/12/15 00:00:36;;;;;;;10.10;5.80;;;1.50;96.60;;;;;;5071521;28;20183;-73
2021/12/15 00:03:02;;;;;;;9.40;6.30;;;1.40;96.60;;;;;;5072547;28;20206;-73
2021/12/15 00:05:28;;;;;;;8.33;4.90;;;1.40;96.50;;;;;;5076153;28;20690;-73
2021/12/15 00:07:58;;;;;;;7.87;4.87;;;1.40;96.80;;;;;;5069825;28;20189;-73
2021/12/15 00:10:25;;;;;;;5.70;4.73;;;1.40;96.70;;;;;;5073635;28;20943;-74
2021/12/15 00:12:52;;;;;;;6.07;4.23;;;1.40;96.80;;;;;;5074975;28;20259;-74
2021/12/15 00:15:19;;;;;;;7.57;4.67;;;1.40;96.80;;;;;;5074085;28;20186;-73
2021/12/15 00:17:45;;;;;;;6.67;3.93;;;1.40;96.70;;;;;;5078030;28;20560;-72
2021/12/15 00:20:14;;;;;;;8.03;4.90;;;1.50;96.60;;;;;;5069333;28;20680;-73
2021/12/15 00:22:40;;;;;;;10.00;4.63;;;1.50;96.50;;;;;;5069644;28;20936;-73
2021/12/15 00:25:07;;;;;;;9.93;5.40;;;1.40;96.40;;;;;;5079092;28;20206;-73
2021/12/15 00:27:33;;;;;;;9.23;4.87;;;1.40;96.40;;;;;;5072062;28;20183;-73
2021/12/15 00:29:59;;;;;;;13.50;5.40;;;1.40;96.60;;;;;;5076447;28;20167;-73
2021/12/15 00:32:25;;;;;;;5.90;4.30;;;1.40;96.60;;;;;;5072230;28;20964;-74
2021/12/15 00:34:51;;;;;;;7.90;4.67;;;1.40;96.60;;;;;;5071637;28;20239;-72
2021/12/15 00:37:21;;;;;;;4.67;4.07;;;1.50;96.50;;;;;;5074194;28;20268;-71
2021/12/15 00:39:48;;;;;;;7.20;4.73;;;1.50;96.40;;;;;;5072246;28;20187;-73
2021/12/15 00:42:14;;;;;;;8.37;5.33;;;1.50;96.30;;;;;;5077834;28;20214;-73
2021/12/15 00:44:40;;;;;;;8.77;4.83;;;1.50;96.40;;;;;;5077656;28;20179;-73
2021/12/15 00:47:07;;;;;;;6.07;3.87;;;1.50;96.20;;;;;;5069437;28;20233;-73
2021/12/15 00:49:34;;;;;;;5.17;4.27;;;1.50;96.40;;;;;;5073569;28;20567;-73
2021/12/15 00:52:00;;;;;;;5.40;3.77;;;1.40;96.40;;;;;;5077861;28;20849;-73
2021/12/15 00:54:26;;;;;;;9.50;4.53;;;1.40;96.40;;;;;;5075334;28;20278;-73
2021/12/15 00:56:53;;;;;;;8.43;4.90;;;1.30;96.70;;;;;;5075635;28;20367;-73
2021/12/15 00:59:20;;;;;;;8.00;4.87;;;1.30;96.70;;;;;;5072287;28;20183;-73
2021/12/15 01:01:46;;;;;;;5.27;3.77;;;1.30;96.70;;;;;;5072541;28;20213;-73
2021/12/15 01:04:16;;;;;;;7.57;4.47;;;1.30;96.80;;;;;;5072062;28;20191;-73
2021/12/15 01:06:46;;;;;;;5.63;3.73;;;1.30;96.70;;;;;;5068792;28;20684;-73
2021/12/15 01:09:17;;;;;;;4.40;3.53;;;1.30;96.60;;;;;;5074673;28;20273;-74
2021/12/15 01:12:11;;;;;;;6.27;4.17;;;1.30;96.50;;;;;;5087008;28;20189;-73
2021/12/15 01:20:20;;;;;;;5.47;3.67;;;1.30;96.20;;;;;;5069526;28;20270;-73
2021/12/15 01:22:50;;;;;;;7.93;3.73;;;1.30;96.20;;;;;;5074438;28;20272;-72
2021/12/15 01:25:23;;;;;;;7.37;4.27;;;1.30;96.20;;;;;;5072397;28;20182;-71
2021/12/15 01:27:50;;;;;;;5.37;3.53;;;1.40;96.30;;;;;;5074931;28;20192;-72
2021/12/15 01:30:19;;;;;;;5.53;3.70;;;1.40;96.20;;;;;;5068984;28;20184;-73
2021/12/15 01:32:45;;;;;;;6.10;3.97;;;1.40;96.10;;;;;;5085786;28;20269;-73
2021/12/15 01:35:11;;;;;;;8.37;4.07;;;1.40;96.10;;;;;;5069282;28;20183;-72
2021/12/15 01:37:38;;;;;;;5.33;3.93;;;1.30;95.90;;;;;;5073088;28;20699;-72
2021/12/15 01:40:07;;;;;;;4.47;4.07;;;1.30;95.80;;;;;;5073453;28;20235;-72
2021/12/15 01:42:35;;;;;;;7.47;3.60;;;1.30;95.90;;;;;;5070641;28;20303;-74
2021/12/15 01:47:46;;;;;;;6.23;4.03;;;1.30;95.80;;;;;;5074963;28;20236;-73
2021/12/15 01:50:12;;;;;;;4.20;3.40;;;1.20;95.80;;;;;;5077415;28;20665;-73
2021/12/15 01:52:41;;;;;;;9.63;4.27;;;1.20;95.90;;;;;;5070368;28;20594;-73
2021/12/15 01:55:17;;;;;;;4.57;3.50;;;1.20;96.00;;;;;;5070573;28;20266;-72
2021/12/15 01:57:43;;;;;;;4.70;3.40;;;1.20;95.80;;;;;;5073777;28;20197;-72
2021/12/15 02:00:24;;;;;;;9.50;4.10;;;1.20;95.90;;;;;;5072621;28;20194;-72
2021/12/15 02:02:51;;;;;;;4.50;3.87;;;1.20;96.00;;;;;;5068161;28;20226;-73
2021/12/15 02:05:17;;;;;;;4.13;3.70;;;1.20;95.90;;;;;;5070887;28;20199;-72
2021/12/15 02:07:45;;;;;;;7.07;4.53;;;1.20;95.90;;;;;;5064341;28;20183;-73
2021/12/15 02:10:11;;;;;;;5.30;4.27;;;1.20;96.00;;;;;;5076957;28;20927;-72
2021/12/15 02:12:40;;;;;;;6.57;3.83;;;1.20;96.00;;;;;;5067176;28;20621;-72
2021/12/15 02:15:14;;;;;;;9.70;5.67;;;1.20;95.90;;;;;;5071009;28;20194;-72
2021/12/15 02:17:41;;;;;;;6.90;4.17;;;1.10;95.80;;;;;;5074046;28;20210;-73
2021/12/15 02:20:09;;;;;;;9.67;4.87;;;1.10;95.90;;;;;;5071656;28;20170;-72
2021/12/15 02:22:35;;;;;;;5.13;3.53;;;1.20;96.00;;;;;;5065301;28;20731;-72
2021/12/15 02:25:03;;;;;;;8.60;4.60;;;1.20;95.90;;;;;;5074839;28;20183;-72
2021/12/15 02:27:34;;;;;;;4.30;3.40;;;1.10;95.90;;;;;;5067509;28;20210;-72
2021/12/15 02:30:16;;;;;;;4.67;4.10;;;1.10;95.80;;;;;;5066757;28;20187;-72
2021/12/15 02:33:13;;;;;;;7.13;4.07;;;1.10;95.90;;;;;;5069000;28;20184;-72
2021/12/15 02:38:13;;;;;;;6.27;3.80;;;1.10;95.90;;;;;;5066743;28;20608;-72
2021/12/15 02:40:39;;;;;;;8.63;5.40;;;1.10;95.60;;;;;;5073636;28;20183;-72
2021/12/15 02:43:06;;;;;;;7.83;4.33;;;1.00;95.50;;;;;;5071204;28;20225;-72
2021/12/15 02:45:32;;;;;;;4.00;3.60;;;1.00;95.60;;;;;;5072004;28;20630;-72
2021/12/15 02:47:58;;;;;;;5.03;3.60;;;1.10;95.50;;;;;;5067888;28;20194;-72
2021/12/15 02:50:27;;;;;;;7.60;3.90;;;1.00;95.40;;;;;;5073706;28;20174;-73
2021/12/15 02:52:54;;;;;;;7.73;3.53;;;1.00;95.20;;;;;;5069218;28;20293;-72
2021/12/15 02:55:21;;;;;;;8.43;4.03;;;1.00;95.00;;;;;;5067651;28;20600;-73
2021/12/15 02:57:48;;;;;;;7.47;4.90;;;0.90;94.80;;;;;;5068213;28;20178;-72
2021/12/15 03:00:30;;;;;;;6.37;4.43;;;1.00;94.70;;;;;;5071874;28;20202;-72
2021/12/15 03:06:11;;;;;;;3.47;3.07;;;0.90;94.30;;;;;;5010319;28;21016;-73
2021/12/15 03:16:44;;;;;;;4.93;3.30;;;0.90;93.60;;;;;;5004161;28;20800;-73
2021/12/15 03:19:10;;;;;;;7.00;3.33;;;0.80;93.50;;;;;;5009238;28;20188;-73
2021/12/15 03:21:36;;;;;;;10.17;3.23;;;0.90;93.60;;;;;;5007074;28;20197;-73
2021/12/15 03:24:06;;;;;;;3.37;3.07;;;0.90;93.40;;;;;;5008018;28;20181;-73
2021/12/15 03:26:43;;;;;;;2.70;2.47;;;0.90;93.20;;;;;;5011322;28;20184;-73
2021/12/15 03:39:47;;;;;;;4.90;2.60;;;1.00;93.10;;;;;;5004534;28;20181;-74
2021/12/15 03:42:24;;;;;;;3.17;2.70;;;1.00;92.80;;;;;;5060113;28;20741;-73
2021/12/15 03:44:50;;;;;;;3.30;3.10;;;1.00;92.70;;;;;;5071199;28;20174;-73
2021/12/15 03:47:26;;;;;;;3.50;3.20;;;1.00;92.70;;;;;;5071258;28;20660;-73
2021/12/15 03:49:55;;;;;;;9.80;4.23;;;1.00;92.70;;;;;;5068963;28;20209;-73
2021/12/15 03:52:20;;;;;;;6.60;3.67;;;1.00;92.70;;;;;;5071044;28;20989;-73
2021/12/15 03:54:46;;;;;;;4.27;3.33;;;1.00;92.40;;;;;;5072101;28;20175;-73
2021/12/15 03:57:13;;;;;;;4.37;3.00;;;1.10;92.70;;;;;;5069173;28;20180;-73
2021/12/15 03:59:42;;;;;;;5.63;4.20;;;1.10;92.40;;;;;;5063438;28;20193;-73
2021/12/15 04:02:13;;;;;;;3.30;2.93;;;1.00;92.10;;;;;;5069320;28;20296;-73
2021/12/15 04:04:40;;;;;;;5.70;3.00;;;1.00;91.80;;;;;;5065788;28;20328;-73
2021/12/15 04:07:07;;;;;;;4.83;2.73;;;1.10;91.80;;;;;;5069867;28;20194;-74
2021/12/15 04:09:33;;;;;;;6.20;3.50;;;1.00;91.50;;;;;;5075565;28;20178;-74
2021/12/15 04:12:00;;;;;;;3.37;2.97;;;1.00;91.50;;;;;;5074979;28;20203;-72
2021/12/15 04:14:31;;;;;;;4.93;3.20;;;1.00;91.70;;;;;;5071366;28;20218;-73
2021/12/15 04:17:06;;;;;;;4.73;3.00;;;0.90;91.90;;;;;;5072967;28;20187;-72
2021/12/15 04:19:37;;;;;;;4.63;3.30;;;0.90;92.00;;;;;;5071415;28;20189;-73
2021/12/15 04:22:04;;;;;;;4.07;3.43;;;0.80;92.10;;;;;;5070190;28;21029;-72
2021/12/15 04:24:30;;;;;;;5.07;3.63;;;0.80;92.20;;;;;;5075874;28;20244;-72
2021/12/15 04:26:58;;;;;;;5.20;4.57;;;0.70;92.20;;;;;;5073052;28;20179;-73
2021/12/15 04:29:26;;;;;;;4.33;3.27;;;0.70;92.50;;;;;;5071843;28;20171;-72
2021/12/15 04:32:08;;;;;;;5.33;3.83;;;0.70;92.70;;;;;;5077991;28;20178;-72
2021/12/15 04:34:34;;;;;;;7.20;3.33;;;0.70;92.60;;;;;;5073175;28;20202;-72
2021/12/15 04:37:00;;;;;;;6.07;2.87;;;0.70;92.50;;;;;;5075638;28;20179;-72
2021/12/15 04:39:27;;;;;;;4.50;3.30;;;0.70;92.60;;;;;;5077520;28;20209;-72
2021/12/15 04:41:54;;;;;;;8.33;3.90;;;0.70;92.50;;;;;;5072996;28;20210;-71
2021/12/15 04:44:25;;;;;;;5.70;3.80;;;0.70;92.50;;;;;;5070625;28;20272;-72
2021/12/15 04:47:04;;;;;;;6.67;2.93;;;0.70;92.40;;;;;;5074212;28;20273;-72
2021/12/15 04:49:33;;;;;;;6.43;3.07;;;0.80;92.40;;;;;;5075475;28;20204;-72
2021/12/15 04:52:00;;;;;;;2.77;2.57;;;0.80;92.30;;;;;;5074155;28;20198;-72
2021/12/15 04:54:26;;;;;;;3.83;2.97;;;0.80;92.10;;;;;;5078093;28;20633;-72
2021/12/15 04:56:52;;;;;;;4.13;2.97;;;0.80;92.10;;;;;;5068597;28;20179;-72
2021/12/15 04:59:18;;;;;;;3.13;2.80;;;0.80;92.10;;;;;;5073715;28;20186;-72
2021/12/15 05:01:45;;;;;;;6.60;3.23;;;0.80;91.90;;;;;;5072578;28;20178;-72
2021/12/15 05:04:11;;;;;;;4.87;2.67;;;0.80;91.90;;;;;;5070105;28;20240;-72
2021/12/15 05:06:37;;;;;;;4.80;4.07;;;0.80;92.00;;;;;;5069920;28;20174;-72
2021/12/15 05:09:05;;;;;;;4.27;3.40;;;0.80;92.20;;;;;;5068477;28;20195;-73
2021/12/15 05:11:31;;;;;;;4.87;4.37;;;0.70;92.10;;;;;;5071087;28;20636;-72
2021/12/15 05:13:57;;;;;;;7.43;4.03;;;0.70;92.30;;;;;;5073511;28;20179;-72
2021/12/15 05:16:22;;;;;;;5.40;3.63;;;0.70;92.20;;;;;;5070850;28;20573;-72
2021/12/15 05:18:49;;;;;;;5.20;4.30;;;0.70;92.30;;;;;;5071141;28;20190;-72
2021/12/15 05:21:16;;;;;;;6.17;4.27;;;0.70;92.40;;;;;;5070592;28;20183;-72
2021/12/15 05:23:44;;;;;;;5.93;3.60;;;0.70;92.30;;;;;;5071041;28;20214;-72
2021/12/15 05:26:11;;;;;;;6.10;4.40;;;0.70;92.30;;;;;;5075810;28;20255;-71
2021/12/15 05:28:37;;;;;;;4.93;3.50;;;0.70;92.40;;;;;;5068564;28;20194;-71
2021/12/15 05:31:03;;;;;;;5.87;3.20;;;0.70;92.20;;;;;;5071913;28;20183;-71
2021/12/15 05:33:28;;;;;;;2.83;2.50;;;0.70;92.10;;;;;;5069449;28;20174;-71
2021/12/15 05:35:56;;;;;;;6.53;3.50;;;0.70;92.20;;;;;;5076403;28;20203;-72
2021/12/15 05:38:22;;;;;;;6.53;4.07;;;0.80;92.00;;;;;;5075853;28;20189;-72
2021/12/15 05:40:49;;;;;;;6.67;3.97;;;0.70;92.00;;;;;;5075512;28;20686;-72
2021/12/15 05:43:15;;;;;;;3.43;2.83;;;0.70;91.90;;;;;;5074268;28;20277;-72
2021/12/15 05:45:42;;;;;;;5.87;3.57;;;0.80;91.90;;;;;;5073980;28;20175;-71
2021/12/15 05:48:10;;;;;;;4.07;3.57;;;0.80;92.00;;;;;;5068666;28;20175;-71
2021/12/15 05:50:37;;;;;;;8.03;4.20;;;0.80;91.90;;;;;;5070155;28;20174;-72
2021/12/15 05:53:03;;;;;;;3.23;2.93;;;0.80;91.90;;;;;;5075310;28;20194;-72
2021/12/15 05:55:29;;;;;;;3.70;2.50;;;0.90;91.90;;;;;;5075850;28;20488;-72
2021/12/15 05:57:55;;;;;;;4.57;3.83;;;0.90;91.70;;;;;;5072290;28;20265;-71
2021/12/15 06:00:25;;;;;;;3.20;2.83;;;0.80;91.50;;;;;;5070722;28;20643;-72
2021/12/15 06:02:52;;;;;;;6.00;3.60;;;0.80;91.30;;;;;;5072963;28;20559;-71
2021/12/15 06:05:18;;;;;;;10.77;3.27;;;0.80;91.30;;;;;;5065848;28;20254;-72
2021/12/15 06:07:44;;;;;;;3.40;3.13;;;0.80;91.40;;;;;;5065276;28;20737;-72
2021/12/15 06:10:15;;;;;;;6.83;3.50;;;0.80;91.50;;;;;;5071142;28;20178;-71
2021/12/15 06:12:43;;;;;;;3.10;2.23;;;0.80;91.40;;;;;;5074851;28;20236;-72
2021/12/15 06:15:09;;;;;;;3.40;3.03;;;0.80;91.40;;;;;;5072751;28;20224;-72
2021/12/15 06:17:35;;;;;;;6.80;4.07;;;0.80;91.20;;;;;;5073562;28;20197;-72
2021/12/15 06:20:02;;;;;;;4.40;3.30;;;0.80;91.50;;;;;;5068101;28;20179;-73
2021/12/15 06:22:30;;;;;;;3.23;2.77;;;0.80;91.80;;;;;;5079269;28;20251;-72
2021/12/15 06:24:57;;;;;;;4.97;3.33;;;0.80;91.70;;;;;;5072277;28;20713;-73
2021/12/15 06:27:24;;;;;;;4.37;3.60;;;0.80;91.20;;;;;;5069124;28;20210;-72
2021/12/15 06:29:51;;;;;;;6.10;4.07;;;0.80;91.40;;;;;;5072960;28;20183;-73
2021/12/15 06:32:17;;;;;;;4.67;3.67;;;0.90;91.40;;;;;;5072508;28;20193;-72
2021/12/15 06:34:43;;;;;;;4.00;3.67;;;0.90;91.30;;;;;;5074259;28;20681;-72
2021/12/15 06:37:10;;;;;;;8.80;4.17;;;0.90;91.30;;;;;;5073775;28;20205;-72
2021/12/15 06:39:36;;;;;;;4.53;3.07;;;1.00;91.20;;;;;;5066316;28;20210;-72
2021/12/15 06:42:03;;;;;;;4.13;2.97;;;1.00;91.10;;;;;;5071950;28;20245;-70
2021/12/15 06:44:29;;;;;;;3.53;3.13;;;1.00;90.70;;;;;;5070483;28;20565;-72
2021/12/15 07:00:32;;;;;;;8.30;3.43;;;0.90;90.90;;;;;;5069652;28;20619;-73
2021/12/15 07:03:00;;;;;;;6.83;3.53;;;1.00;90.60;;;;;;5068736;28;20236;-73
2021/12/15 07:05:27;;;;;;;3.57;3.27;;;1.00;90.60;;;;;;5068733;28;21932;-74
2021/12/15 07:07:54;;;;;;;3.40;3.10;;;1.00;90.70;;;;;;5071431;28;20182;-72
2021/12/15 07:10:24;;;;;;;5.67;4.20;;;1.10;90.60;;;;;;5071441;28;20248;-73
2021/12/15 07:12:50;;;;;;;6.40;3.60;;;1.10;90.50;;;;;;5067110;28;20186;-74
2021/12/15 07:15:17;;;;;;;5.70;3.80;;;1.10;90.50;;;;;;5068089;28;20236;-74
2021/12/15 07:17:47;;;;;;;5.60;4.03;;;1.10;90.60;;;;;;5066575;28;20265;-74
2021/12/15 07:20:35;;;;;;;6.10;3.43;;;1.10;90.60;;;;;;5071055;28;20186;-74
2021/12/15 07:23:05;;;;;;;3.07;2.67;;;1.20;90.50;;;;;;5067354;28;20222;-73
2021/12/15 07:25:31;;;;;;;6.00;3.30;;;1.10;90.40;;;;;;5070671;28;20192;-72
2021/12/15 07:27:58;;;;;;;8.03;3.97;;;1.10;90.40;;;;;;5066579;28;20183;-73
2021/12/15 07:30:24;;;;;;;5.43;3.77;;;1.10;90.60;;;;;;5068837;28;20804;-73
2021/12/15 07:32:50;;;;;;;5.30;3.67;;;1.10;90.50;;;;;;5072563;28;20273;-73
2021/12/15 07:35:17;;;;;;;8.70;4.37;;;1.20;90.60;;;;;;5065345;28;20194;-72
2021/12/15 07:37:44;;;;;;;4.10;3.53;;;1.20;90.60;;;;;;5069805;28;20637;-72
2021/12/15 07:40:18;;;;;;;4.47;4.07;;;1.20;90.60;;;;;;5067961;28;20194;-73
2021/12/15 07:45:30;;;;;;;5.43;3.77;;;1.20;90.60;;;;;;5079650;28;20201;-73
2021/12/15 07:47:58;;;;;;;6.90;4.13;;;1.20;90.70;;;;;;5082643;28;20186;-73
2021/12/15 07:50:25;;;;;;;4.27;3.43;;;1.20;90.40;;;;;;5070968;28;20244;-71
2021/12/15 07:52:51;;;;;;;3.10;2.87;;;1.30;90.30;;;;;;5078271;28;20182;-72
2021/12/15 07:55:17;;;;;;;9.90;3.73;;;1.30;90.30;;;;;;5075650;28;20252;-74
2021/12/15 07:57:43;;;;;;;5.43;3.67;;;1.30;90.30;;;;;;5080287;28;20174;-73
2021/12/15 08:00:11;;;;;;;3.47;3.27;;;1.20;90.20;;;;;;5074643;28;20179;-72
2021/12/15 08:05:59;;;;;;;4.57;3.03;;;1.20;90.20;;;;;;5073069;28;20185;-72
2021/12/15 08:08:25;;;;;;;4.77;3.23;;;1.10;90.40;;;;;;5074220;28;20189;-72
2021/12/15 08:10:56;;;;;;;3.70;3.40;;;1.10;90.60;;;;;;5075700;28;20185;-75
2021/12/15 08:13:27;;;;;;;4.40;2.87;;;1.10;90.60;;;;;;5077719;28;20232;-75
2021/12/15 08:15:53;;;;;;;4.40;3.37;;;1.10;90.60;;;;;;5075701;28;20944;-75
2021/12/15 08:18:19;;;;;;;5.23;2.67;;;1.10;90.40;;;;;;5072637;28;20183;-75
2021/12/15 08:20:46;;;;;;;2.43;2.30;;;1.10;90.30;;;;;;5075175;28;20718;-74
2021/12/15 08:23:11;;;;;;;8.40;3.10;;;1.10;90.30;;;;;;5075228;28;20316;-74
2021/12/15 08:25:39;;;;;;;2.73;2.53;;;1.00;90.40;;;;;;5077766;28;20695;-73
2021/12/15 08:28:07;;;;;;;3.80;2.37;;;1.00;90.50;;;;;;5079590;28;20185;-73
2021/12/15 08:30:35;;;;;;;5.40;3.17;;;0.90;90.80;;;;;;5070261;28;20186;-74
2021/12/15 08:33:08;;;;;;;3.17;2.47;;;0.90;91.00;;;;;;5071854;28;20194;-74
2021/12/15 08:35:39;;;;;;;7.00;3.63;;;0.90;91.10;;;;;;5073902;28;20198;-74
2021/12/15 08:38:06;;;;;;;5.03;3.50;;;0.80;91.30;;;;;;5070310;28;20182;-74
2021/12/15 08:40:32;;;;;;;3.83;3.10;;;0.80;91.50;;;;;;5071768;28;20179;-73
2021/12/15 08:42:59;;;;;;;3.00;2.30;;;0.90;91.70;;;;;;5078094;28;21649;-73
2021/12/15 08:45:26;;;;;;;3.30;2.60;;;0.90;91.40;;;;;;5076826;28;20274;-73
2021/12/15 08:47:52;;;;;;;2.73;2.50;;;0.90;91.20;;;;;;5077185;28;20175;-73
2021/12/15 08:50:22;;;;;;;2.57;2.47;;;0.90;91.10;;;;;;5076312;28;20175;-73
2021/12/15 08:52:48;;;;;;;3.07;2.80;;;0.90;91.10;;;;;;5073107;28;20170;-73
2021/12/15 08:55:14;;;;;;;2.70;2.50;;;0.90;91.00;;;;;;5078042;28;20712;-73
2021/12/15 08:57:47;;;;;;;3.47;3.07;;;0.90;91.00;;;;;;5075179;28;20270;-74
2021/12/15 09:00:14;;;;;;;6.20;2.67;;;0.90;91.10;;;;;;5072267;28;20186;-75
2021/12/15 09:02:39;;;;;;;7.93;3.67;;;0.90;91.20;;;;;;5075179;28;20229;-75
2021/12/15 09:05:06;;;;;;;4.40;2.47;;;0.90;91.10;;;;;;5072597;28;21142;-74
2021/12/15 09:07:32;;;;;;;4.63;3.27;;;0.90;91.30;;;;;;5071076;28;20285;-75
2021/12/15 09:09:58;;;;;;;2.70;2.50;;;1.00;91.30;;;;;;5070530;28;20605;-75
2021/12/15 09:12:24;;;;;;;3.00;2.80;;;1.00;91.10;;;;;;5069596;28;20187;-74
2021/12/15 09:14:50;;;;;;;4.63;2.77;;;1.00;90.90;;;;;;5071932;28;20258;-75
2021/12/15 09:17:16;;;;;;;4.00;2.50;;;1.00;91.10;;;;;;5071403;28;20273;-75
2021/12/15 09:19:42;;;;;;;3.43;2.87;;;1.00;91.10;;;;;;5071343;28;20183;-75
2021/12/15 09:22:08;;;;;;;3.80;2.87;;;1.10;90.90;;;;;;5071089;28;20221;-75
2021/12/15 09:24:34;;;;;;;3.90;2.57;;;1.10;90.70;;;;;;5071589;28;20202;-75
2021/12/15 09:27:00;;;;;;;5.27;2.70;;;1.10;90.80;;;;;;5072295;28;20213;-75
2021/12/15 09:29:26;;;;;;;2.60;2.40;;;1.10;90.90;;;;;;5075925;28;21052;-76
2021/12/15 09:31:53;;;;;;;2.33;2.13;;;1.10;90.70;;;;;;5073479;28;20673;-75
2021/12/15 09:34:19;;;;;;;2.77;2.10;;;1.00;90.70;;;;;;5068009;28;20589;-75
2021/12/15 09:36:51;;;;;;;3.40;2.97;;;1.00;90.80;;;;;;5068591;28;20183;-75
2021/12/15 09:39:20;;;;;;;2.57;2.37;;;1.00;91.00;;;;;;5066683;28;20684;-75
2021/12/15 09:41:46;;;;;;;3.03;2.77;;;1.00;91.20;;;;;;5068070;28;20259;-75
2021/12/15 09:44:15;;;;;;;4.37;3.17;;;1.00;91.20;;;;;;5066817;28;20745;-75
2021/12/15 10:02:59;;;;;;;4.87;3.17;;;1.00;91.50;;;;;;5032857;28;20318;-76
2021/12/15 10:05:38;;;;;;;6.30;3.17;;;1.00;91.40;;;;;;5016115;28;20218;-73
2021/12/15 10:19:21;;;;;;;4.00;3.57;;;1.10;90.90;;;;;;5030884;28;20203;-74
2021/12/15 10:22:09;;;;;;;5.80;3.80;;;1.00;91.10;;;;;;5026142;28;20781;-73
2021/12/15 10:25:03;;;;;;;3.13;2.83;;;1.00;91.20;;;;;;5024043;28;20183;-74
2021/12/15 10:27:40;;;;;;;4.80;3.10;;;1.00;91.30;;;;;;5021697;28;20199;-74
2021/12/15 10:30:28;;;;;;;5.23;2.57;;;1.00;91.50;;;;;;5031649;28;20697;-77
2021/12/15 10:33:05;;;;;;;6.03;2.13;;;1.00;91.80;;;;;;5021135;28;20206;-75
2021/12/15 10:35:37;;;;;;;3.13;2.83;;;1.00;91.90;;;;;;5023433;28;20204;-75
2021/12/15 10:38:29;;;;;;;4.47;3.13;;;1.00;92.00;;;;;;5023055;28;20605;-74
2021/12/15 10:41:10;;;;;;;2.63;2.30;;;1.00;91.90;;;;;;5101650;27;20188;-74
2021/12/15 10:43:39;;;;;;;6.77;3.50;;;1.10;91.80;;;;;;5069377;28;20238;-74
2021/12/15 10:46:33;;;;;;;4.90;3.47;;;1.10;91.70;;;;;;5075885;28;20198;-75
2021/12/15 10:49:00;;;;;;;5.13;2.60;;;1.10;91.80;;;;;;5076669;28;20270;-74
2021/12/15 10:51:28;;;;;;;6.67;4.03;;;1.10;91.80;;;;;;5070607;28;20855;-72
2021/12/15 10:54:00;;;;;;;4.30;3.50;;;1.10;91.90;;;;;;5068407;28;20202;-73
2021/12/15 10:56:29;;;;;;;3.03;2.70;;;1.10;92.10;;;;;;5072343;28;20247;-72
2021/12/15 10:58:59;;;;;;;6.03;3.63;;;1.10;92.00;;;;;;5068661;28;20294;-73
2021/12/15 11:01:46;;;;;;;5.43;3.20;;;1.10;92.10;;;;;;5071658;28;20182;-74
2021/12/15 11:04:24;;;;;;;3.93;3.17;;;1.10;92.30;;;;;;5070403;28;20252;-74
2021/12/15 11:07:01;;;;;;;3.40;3.17;;;1.10;92.60;;;;;;5073082;28;20178;-74
2021/12/15 11:09:33;;;;;;;3.63;3.33;;;1.10;92.80;;;;;;5071229;28;20190;-73
2021/12/15 11:12:12;;;;;;;5.50;3.37;;;1.10;93.00;;;;;;5073047;28;20183;-74
2021/12/15 11:14:43;;;;;;;9.17;3.13;;;1.10;93.10;;;;;;5075047;28;20182;-73
2021/12/15 11:17:26;;;;;;;3.70;3.37;;;1.20;93.10;;;;;;5078801;28;20190;-73
2021/12/15 11:20:03;;;;;;;5.63;3.50;;;1.20;93.20;;;;;;5079546;28;20807;-73
2021/12/15 11:22:56;;;;;;;4.13;3.50;;;1.30;92.90;;;;;;5077925;28;20705;-73
2021/12/15 11:25:24;;;;;;;3.47;3.13;;;1.30;92.80;;;;;;5074397;28;20736;-73
2021/12/15 11:27:53;;;;;;;9.57;3.27;;;1.30;92.90;;;;;;5073373;28;20217;-73
2021/12/15 11:30:27;;;;;;;5.27;3.97;;;1.30;92.90;;;;;;5076659;28;20183;-73
2021/12/15 11:32:55;;;;;;;4.93;4.07;;;1.30;92.90;;;;;;5072145;28;20186;-73
2021/12/15 11:35:29;;;;;;;3.37;2.97;;;1.30;92.80;;;;;;5077677;28;20182;-72
2021/12/15 11:38:03;;;;;;;7.80;3.90;;;1.40;92.90;;;;;;5077488;28;20182;-72
2021/12/15 11:41:11;;;;;;;5.80;3.63;;;1.40;92.80;;;;;;5080450;28;20182;-73
2021/12/15 11:43:41;;;;;;;7.77;3.47;;;1.50;92.50;;;;;;5029595;28;20216;-73
2021/12/15 11:46:25;;;;;;;4.80;4.13;;;1.50;92.30;;;;;;5031108;28;20195;-73
2021/12/15 11:49:04;;;;;;;3.57;2.90;;;1.50;92.20;;;;;;5035943;28;20267;-73
2021/12/15 11:51:43;;;;;;;3.00;2.80;;;1.50;92.00;;;;;;5034647;28;20215;-73
2021/12/15 11:54:20;;;;;;;6.73;3.73;;;1.60;92.00;;;;;;5036026;28;20188;-72
2021/12/15 11:56:49;;;;;;;4.53;4.10;;;1.60;92.00;;;;;;5034521;28;20187;-72
2021/12/15 11:59:40;;;;;;;3.30;3.03;;;1.70;91.80;;;;;;5035863;28;20195;-72
2021/12/15 12:02:10;;;;;;;5.83;3.77;;;1.70;91.60;;;;;;5040125;28;21708;-73
2021/12/15 12:04:55;;;;;;;4.47;3.80;;;1.70;91.40;;;;;;5036397;28;20188;-72
2021/12/15 12:07:28;;;;;;;8.17;4.53;;;1.70;91.40;;;;;;5031274;28;20255;-72
2021/12/15 12:09:54;;;;;;;6.43;4.60;;;1.70;91.60;;;;;;5035882;28;20695;-72
2021/12/15 12:12:25;;;;;;;3.43;3.23;;;1.70;91.60;;;;;;5028917;28;20184;-72
2021/12/15 12:14:51;;;;;;;5.27;3.97;;;1.60;91.40;;;;;;5016347;28;20294;-73
2021/12/15 12:17:38;;;;;;;5.07;4.10;;;1.60;91.50;;;;;;5032981;28;20188;-72
2021/12/15 12:20:16;;;;;;;5.20;4.10;;;1.60;91.50;;;;;;5040204;28;20201;-72
2021/12/15 12:22:45;;;;;;;6.77;3.50;;;1.50;91.50;;;;;;5074631;28;20210;-72
2021/12/15 12:25:24;;;;;;;6.47;4.73;;;1.50;91.60;;;;;;5074198;28;20582;-72
2021/12/15 12:27:53;;;;;;;7.40;5.17;;;1.40;92.00;;;;;;5075018;28;20178;-73
2021/12/15 12:30:20;;;;;;;10.40;5.33;;;1.50;92.30;;;;;;5073024;28;20575;-73
2021/12/15 12:32:47;;;;;;;5.57;3.97;;;1.50;92.30;;;;;;5080375;28;20203;-73
2021/12/15 12:35:18;;;;;;;6.27;3.67;;;1.50;92.20;;;;;;5076615;28;20198;-73
2021/12/15 12:37:55;;;;;;;10.03;4.57;;;1.50;92.20;;;;;;5075600;28;21626;-71
2021/12/15 12:40:33;;;;;;;5.00;4.00;;;1.50;92.00;;;;;;5071814;28;20170;-74
2021/12/15 12:43:00;;;;;;;4.77;4.13;;;1.50;91.90;;;;;;5070938;28;20237;-73
2021/12/15 12:45:41;;;;;;;3.73;3.43;;;1.50;91.90;;;;;;5066521;28;20183;-70
2021/12/15 12:59:46;;;;;;;5.10;3.70;;;1.30;92.60;;;;;;5069311;28;20198;-69
2021/12/15 13:02:39;;;;;;;5.27;4.43;;;1.40;92.60;;;;;;5072074;28;20222;-71
2021/12/15 13:05:25;;;;;;;6.50;3.90;;;1.40;92.50;;;;;;5071021;28;20343;-71
2021/12/15 13:07:54;;;;;;;6.63;4.83;;;1.40;92.50;;;;;;5075670;28;20179;-71
2021/12/15 13:10:42;;;;;;;9.17;5.57;;;1.40;92.60;;;;;;5072322;28;20182;-71
2021/12/15 13:13:16;;;;;;;7.77;4.73;;;1.40;92.50;;;;;;5072860;28;20207;-70
2021/12/15 13:15:51;;;;;;;5.03;4.57;;;1.40;92.60;;;;;;5070593;28;20239;-70
2021/12/15 13:18:17;;;;;;;6.83;4.73;;;1.40;92.50;;;;;;5072202;28;20198;-71
2021/12/15 13:20:53;;;;;;;11.27;4.93;;;1.40;92.50;;;;;;5073600;28;20286;-71
2021/12/15 13:23:58;;;;;;;6.60;4.70;;;1.30;92.60;;;;;;5072533;28;20246;-71
2021/12/15 13:29:52;;;;;;;6.73;4.40;;;1.40;92.90;;;;;;5070838;28;20302;-72
2021/12/15 13:32:20;;;;;;;4.47;3.47;;;1.40;92.80;;;;;;5070659;28;20189;-72
2021/12/15 13:34:48;;;;;;;7.47;3.97;;;1.40;92.70;;;;;;5070897;28;20252;-72
2021/12/15 13:37:53;;;;;;;5.27;3.37;;;1.30;92.60;;;;;;5071262;28;20190;-72
2021/12/15 13:40:57;;;;;;;4.07;3.30;;;1.40;92.70;;;;;;5071800;28;20208;-71
2021/12/15 13:43:32;;;;;;;7.13;4.37;;;1.40;92.60;;;;;;5065797;28;20242;-70
2021/12/15 13:45:57;;;;;;;6.43;4.47;;;1.40;92.60;;;;;;5064826;28;20276;-72
2021/12/15 13:48:55;;;;;;;6.17;4.73;;;1.40;92.50;;;;;;5104595;27;20608;-72
2021/12/15 13:51:52;;;;;;;5.27;4.07;;;1.50;92.50;;;;;;5065693;28;20348;-71
2021/12/15 13:54:33;;;;;;;5.10;4.07;;;1.50;92.30;;;;;;5065758;28;20194;-72
2021/12/15 13:57:15;;;;;;;6.90;5.03;;;1.60;92.00;;;;;;5070114;28;20179;-72
2021/12/15 13:59:47;;;;;;;10.37;5.10;;;1.60;92.00;;;;;;5071681;28;20181;-72
2021/12/15 14:02:22;;;;;;;7.03;5.60;;;1.70;91.90;;;;;;5072275;28;20267;-73
2021/12/15 14:04:59;;;;;;;7.43;5.07;;;1.70;91.60;;;;;;5072038;28;20241;-71
2021/12/15 14:07:32;;;;;;;4.57;3.90;;;1.80;91.50;;;;;;5068215;28;20188;-71
2021/12/15 14:10:00;;;;;;;9.73;5.37;;;1.80;91.30;;;;;;5070376;28;20188;-70
2021/12/15 14:12:44;;;;;;;4.57;4.17;;;1.90;91.20;;;;;;5069487;28;20657;-71
2021/12/15 14:15:33;;;;;;;5.13;4.00;;;1.90;91.00;;;;;;5071646;28;20182;-72
2021/12/15 14:18:03;;;;;;;5.77;3.73;;;2.00;90.80;;;;;;5086988;28;20175;-71
2021/12/15 14:20:31;;;;;;;7.23;3.90;;;2.00;90.50;;;;;;5065742;28;20625;-69
2021/12/15 14:23:07;;;;;;;3.63;3.33;;;2.00;90.50;;;;;;5067772;28;20289;-71
2021/12/15 14:25:35;;;;;;;5.77;3.87;;;2.00;90.40;;;;;;5068348;28;20186;-71
2021/12/15 14:28:33;;;;;;;15.07;4.70;;;2.00;90.20;;;;;;5098651;27;20175;-72
2021/12/15 14:31:03;;;;;;;4.53;4.10;;;1.90;90.30;;;;;;5021734;28;20192;-71
2021/12/15 14:33:33;;;;;;;8.60;5.07;;;1.90;90.30;;;;;;5019928;28;20211;-71
2021/12/15 14:36:08;;;;;;;7.33;3.73;;;1.80;90.20;;;;;;5019749;28;20200;-71
2021/12/15 14:38:48;;;;;;;5.50;4.43;;;1.70;90.30;;;;;;5020656;28;20262;-71
2021/12/15 14:41:15;;;;;;;6.83;4.63;;;1.60;90.60;;;;;;5020587;28;20188;-71
2021/12/15 14:43:41;;;;;;;5.67;4.50;;;1.60;90.80;;;;;;5019605;28;20610;-70
2021/12/15 14:46:21;;;;;;;4.90;4.13;;;1.60;91.00;;;;;;5020199;28;20189;-71
2021/12/15 14:49:04;;;;;;;6.97;4.40;;;1.50;91.30;;;;;;5020197;28;20192;-71
2021/12/15 14:51:30;;;;;;;8.60;5.23;;;1.50;91.40;;;;;;5018988;28;20242;-71